Time;durP1;ratioP1;P1;durP2;ratioP2;P2;SDS_P1;SDS_P2;PMS_P1;PMS_P2;Temp;Humidity;BMP_temperature;BMP_pressure;BME280_temperature;BME280_humidity;BME280_pressure;Samples;Min_cycle;Max_cycle;Signal;HPM_P1;HPM_P2
2023/07/26 00:00:04;;;;;;;19.80;8.10;;;;;;;-143.21;44.88;69820.22;5109527;27;20244;-82
2023/07/26 00:02:31;;;;;;;23.63;8.45;;;;;;;-143.21;45.14;69822.22;5109008;28;20200;-82
2023/07/26 00:04:58;;;;;;;22.58;8.10;;;;;;;-143.21;45.22;69832.13;5109065;27;20222;-81
2023/07/26 00:07:26;;;;;;;19.15;8.05;;;;;;;-143.21;45.56;69830.13;5108942;28;20662;-82
2023/07/26 00:09:53;;;;;;;14.50;7.07;;;;;;;-143.21;46.30;69842.03;5107993;28;20817;-82
2023/07/26 00:12:18;;;;;;;17.10;8.43;;;;;;;-143.21;46.34;69849.94;5111839;27;20600;-82
2023/07/26 00:14:45;;;;;;;22.25;8.10;;;;;;;-143.21;46.50;69844.00;5108716;28;20231;-81
2023/07/26 00:17:12;;;;;;;17.77;7.35;;;;;;;-143.21;46.95;69842.03;5106354;27;20217;-82
2023/07/26 00:19:39;;;;;;;14.90;7.20;;;;;;;-143.21;46.90;69842.03;5108909;28;20204;-83
2023/07/26 00:22:06;;;;;;;20.17;8.25;;;;;;;-143.21;47.18;69847.97;5108817;28;20215;-83
2023/07/26 00:24:34;;;;;;;24.52;8.27;;;;;;;-143.21;47.39;69846.00;5109009;28;20226;-83
2023/07/26 00:27:01;;;;;;;24.77;8.10;;;;;;;-143.21;47.54;69838.06;5110407;28;20200;-84
2023/07/26 00:29:28;;;;;;;15.80;7.50;;;;;;;-143.21;47.67;69840.03;5108054;27;20235;-83
2023/07/26 00:31:54;;;;;;;20.50;8.98;;;;;;;-143.21;47.96;69855.91;5108693;28;20204;-83
2023/07/26 00:34:21;;;;;;;20.75;8.05;;;;;;;-143.21;48.00;69857.88;5108562;28;20210;-84
2023/07/26 00:36:48;;;;;;;22.77;7.85;;;;;;;-143.21;48.44;69851.94;5112407;28;20662;-83
2023/07/26 00:39:15;;;;;;;18.90;8.45;;;;;;;-143.21;48.33;69859.84;5109088;28;20214;-83
2023/07/26 00:41:43;;;;;;;15.93;7.72;;;;;;;-143.21;48.58;69859.84;5108144;28;20666;-83
2023/07/26 00:44:11;;;;;;;18.38;8.65;;;;;;;-143.21;48.56;69855.91;5105451;28;20204;-83
2023/07/26 00:46:38;;;;;;;15.43;7.65;;;;;;;-143.21;48.47;69857.88;5107640;28;20200;-83
2023/07/26 00:49:05;;;;;;;16.90;8.68;;;;;;;-143.21;48.73;69885.63;5107514;28;20214;-83
2023/07/26 00:51:32;;;;;;;20.40;8.43;;;;;;;-143.21;49.55;69893.53;5110913;28;20239;-83
2023/07/26 00:53:59;;;;;;;19.05;8.00;;;;;;;-143.21;49.33;69889.59;5112416;27;20800;-83
2023/07/26 00:56:26;;;;;;;17.98;8.82;;;;;;;-143.21;49.50;69877.69;5114242;27;20223;-83
2023/07/26 00:58:54;;;;;;;19.77;8.27;;;;;;;-143.21;49.36;69869.78;5113098;27;20678;-81
2023/07/26 01:01:21;;;;;;;24.05;8.40;;;;;;;-143.21;49.13;69867.78;5115526;27;20211;-81
2023/07/26 01:03:48;;;;;;;14.43;7.60;;;;;;;-143.21;48.86;69853.91;5110397;27;20221;-81
2023/07/26 01:06:22;;;;;;;16.67;7.93;;;;;;;-143.21;48.94;69855.91;5114951;27;20219;-81
2023/07/26 01:09:00;;;;;;;16.73;8.25;;;;;;;-143.21;48.94;69865.81;5115448;27;20421;-82
2023/07/26 01:11:31;;;;;;;16.15;7.88;;;;;;;-143.21;49.11;69857.88;5112564;27;20296;-82
2023/07/26 01:14:07;;;;;;;17.23;7.90;;;;;;;-143.21;49.44;69863.81;5111455;27;20664;-82
2023/07/26 01:16:35;;;;;;;16.73;7.75;;;;;;;-143.21;49.69;69855.91;5115890;27;20306;-81
2023/07/26 01:19:05;;;;;;;18.73;8.25;;;;;;;-143.21;49.81;69859.84;5111521;27;20303;-81
2023/07/26 01:21:34;;;;;;;21.58;7.60;;;;;;;-143.21;49.94;69861.84;5114920;27;20239;-81
2023/07/26 01:24:01;;;;;;;15.38;7.72;;;;;;;-143.21;50.02;69861.84;5116899;27;20223;-81
2023/07/26 01:26:28;;;;;;;21.85;8.25;;;;;;;-143.21;50.05;69857.88;5114601;27;20200;-81
2023/07/26 01:28:55;;;;;;;14.18;7.72;;;;;;;-143.21;50.02;69853.91;5114138;27;20208;-81
2023/07/26 01:31:24;;;;;;;18.20;7.95;;;;;;;-143.21;49.81;69853.91;5114608;27;20204;-81
2023/07/26 01:33:52;;;;;;;18.88;7.78;;;;;;;-143.21;49.37;69846.00;5114170;27;20199;-81
2023/07/26 01:36:21;;;;;;;20.40;7.78;;;;;;;-143.21;50.21;69871.75;5117171;27;20216;-81
2023/07/26 01:38:49;;;;;;;15.13;7.28;;;;;;;-143.21;49.88;69857.88;5111408;27;20206;-81
2023/07/26 01:41:17;;;;;;;17.10;7.80;;;;;;;-143.21;50.27;69867.78;5111578;27;20211;-81
2023/07/26 01:43:44;;;;;;;24.60;8.30;;;;;;;-143.21;50.08;69861.84;5113680;27;20311;-81
2023/07/26 01:46:11;;;;;;;14.38;7.63;;;;;;;-143.21;50.46;69855.91;5111769;27;20196;-81
2023/07/26 01:48:38;;;;;;;19.23;8.25;;;;;;;-143.21;50.29;69857.88;5115185;27;20196;-82
2023/07/26 01:51:05;;;;;;;22.67;8.65;;;;;;;-143.21;50.52;69847.97;5111230;27;20628;-80
2023/07/26 01:53:32;;;;;;;16.27;8.50;;;;;;;-143.21;50.18;69844.00;5112037;27;20614;-80
2023/07/26 01:56:01;;;;;;;24.75;8.80;;;;;;;-143.21;50.44;69853.91;5119477;27;20288;-80
2023/07/26 01:58:27;;;;;;;16.77;8.60;;;;;;;-143.21;50.61;69846.00;5111402;27;20290;-82
2023/07/26 02:00:54;;;;;;;21.13;8.75;;;;;;;-143.21;50.63;69857.88;5114221;27;20204;-82
2023/07/26 02:03:21;;;;;;;17.38;7.53;;;;;;;-143.21;51.03;69855.91;5115270;27;20207;-82
2023/07/26 02:05:48;;;;;;;16.20;7.78;;;;;;;-143.21;51.11;69844.00;5112216;27;20248;-84
2023/07/26 02:08:17;;;;;;;17.40;7.95;;;;;;;-143.21;51.36;69846.00;5112261;27;20219;-83
2023/07/26 02:10:44;;;;;;;14.32;8.20;;;;;;;-143.21;51.05;69844.00;5111084;27;20196;-84
2023/07/26 02:13:12;;;;;;;19.00;8.57;;;;;;;-143.21;50.94;69855.91;5113852;27;20207;-83
2023/07/26 02:15:39;;;;;;;17.65;8.40;;;;;;;-143.21;51.62;69871.75;5112264;27;20223;-83
2023/07/26 02:18:06;;;;;;;21.65;8.20;;;;;;;-143.21;52.04;69877.69;5113276;27;20306;-83
2023/07/26 02:20:34;;;;;;;18.45;8.30;;;;;;;-143.21;51.99;69879.69;5110952;28;20290;-83
2023/07/26 02:23:02;;;;;;;21.02;8.52;;;;;;;-143.21;52.05;69893.53;5110828;27;20266;-83
2023/07/26 02:25:29;;;;;;;16.83;7.85;;;;;;;-143.21;52.46;69893.53;5110591;27;20222;-82
2023/07/26 02:27:55;;;;;;;20.98;7.95;;;;;;;-143.21;52.49;69903.47;5113984;27;20261;-84
2023/07/26 02:30:24;;;;;;;16.23;8.25;;;;;;;-143.21;52.15;69897.50;5111042;27;20200;-82
2023/07/26 02:32:51;;;;;;;15.65;7.70;;;;;;;-143.21;51.96;69889.59;5110193;27;20204;-82
2023/07/26 02:35:18;;;;;;;17.85;8.65;;;;;;;-143.21;51.86;69901.47;5114310;27;20283;-80
2023/07/26 02:37:44;;;;;;;21.10;8.35;;;;;;;-143.21;52.25;69903.47;5109709;27;20204;-79
2023/07/26 02:40:12;;;;;;;15.38;8.45;;;;;;;-143.21;52.21;69899.50;5111838;27;20665;-79
2023/07/26 02:42:39;;;;;;;15.75;8.57;;;;;;;-143.21;52.29;69903.47;5111455;27;20203;-80
2023/07/26 02:45:07;;;;;;;19.55;8.50;;;;;;;-143.21;52.51;69895.53;5113819;27;20208;-80
2023/07/26 02:47:35;;;;;;;21.42;8.77;;;;;;;-143.21;52.50;69905.44;5113200;27;20208;-80
2023/07/26 02:50:04;;;;;;;14.70;8.20;;;;;;;-143.21;52.62;69913.38;5113021;27;21660;-80
2023/07/26 02:52:31;;;;;;;15.02;8.57;;;;;;;-143.21;52.81;69923.28;5108412;27;20255;-81
2023/07/26 02:54:58;;;;;;;18.05;8.60;;;;;;;-143.21;52.96;69937.16;5112621;27;20207;-83
2023/07/26 02:57:24;;;;;;;15.25;8.32;;;;;;;-143.21;52.58;69923.28;5109940;27;20264;-81
2023/07/26 02:59:51;;;;;;;18.48;8.82;;;;;;;-143.21;52.46;69925.25;5113727;27;20210;-82
2023/07/26 03:02:18;;;;;;;20.90;8.73;;;;;;;-143.21;52.65;69929.22;5112074;27;20207;-83
2023/07/26 03:04:46;;;;;;;16.38;9.13;;;;;;;-143.21;52.89;69941.13;5110467;27;20196;-83
2023/07/26 03:07:13;;;;;;;18.90;8.63;;;;;;;-143.21;53.07;69949.03;5109549;27;20199;-83
2023/07/26 03:09:40;;;;;;;19.00;9.00;;;;;;;-143.21;53.17;69949.03;5112885;27;20200;-84
2023/07/26 03:12:07;;;;;;;17.20;8.50;;;;;;;-143.21;52.86;69939.13;5112065;27;20207;-84
2023/07/26 03:14:40;;;;;;;17.58;8.57;;;;;;;-143.21;52.76;69947.06;5108701;27;20203;-84
2023/07/26 03:17:07;;;;;;;15.85;8.10;;;;;;;-143.21;52.89;69945.06;5109799;27;20581;-84
2023/07/26 03:19:34;;;;;;;17.65;8.60;;;;;;;-143.21;52.82;69954.97;5113003;27;20206;-84
2023/07/26 03:22:02;;;;;;;14.48;8.05;;;;;;;-143.21;52.80;69947.06;5109375;27;21170;-83
2023/07/26 03:24:29;;;;;;;22.17;8.55;;;;;;;-143.21;52.37;69945.06;5112534;27;20219;-83
2023/07/26 03:26:56;;;;;;;22.77;9.20;;;;;;;-143.21;52.75;69939.13;5110053;27;20196;-84
2023/07/26 03:29:23;;;;;;;20.38;8.57;;;;;;;-143.21;53.01;69956.97;5111018;27;20212;-84
2023/07/26 03:31:49;;;;;;;19.15;9.07;;;;;;;-143.21;53.09;69951.03;5110406;27;20206;-84
2023/07/26 03:34:16;;;;;;;20.90;8.45;;;;;;;-143.21;52.80;69951.03;5112985;27;20208;-85
2023/07/26 03:36:43;;;;;;;20.10;8.50;;;;;;;-143.21;52.97;69953.00;5114244;27;20242;-81
2023/07/26 03:39:11;;;;;;;19.05;8.30;;;;;;;-143.21;53.04;69958.94;5113148;27;20204;-80
2023/07/26 03:41:38;;;;;;;27.92;9.30;;;;;;;-143.21;53.28;69968.84;5110196;27;20208;-80
2023/07/26 03:44:05;;;;;;;18.25;8.73;;;;;;;-143.21;53.63;69980.75;5109356;27;20207;-80
2023/07/26 03:46:32;;;;;;;21.30;9.07;;;;;;;-143.21;53.91;70000.56;5112316;27;20582;-80
2023/07/26 03:48:58;;;;;;;16.75;9.02;;;;;;;-143.21;54.06;70008.50;5106982;27;20207;-80
2023/07/26 03:51:25;;;;;;;28.30;8.90;;;;;;;-143.21;54.06;70008.50;5111244;27;20224;-80
2023/07/26 03:53:52;;;;;;;15.52;9.02;;;;;;;-143.21;54.32;70016.41;5108597;27;20200;-80
2023/07/26 03:56:20;;;;;;;18.42;8.90;;;;;;;-143.21;54.53;70020.38;5112024;27;20223;-79
2023/07/26 03:58:47;;;;;;;18.58;8.90;;;;;;;-143.21;54.64;70028.31;5112026;27;20211;-79
2023/07/26 04:01:14;;;;;;;18.05;8.60;;;;;;;-143.21;54.67;70028.31;5114333;27;20207;-79
2023/07/26 04:03:41;;;;;;;27.23;9.57;;;;;;;-143.21;54.70;70026.31;5113733;27;20234;-81
2023/07/26 04:06:12;;;;;;;23.23;10.30;;;;;;;-143.21;54.51;70020.38;5107896;27;20218;-81
2023/07/26 04:08:39;;;;;;;24.88;9.43;;;;;;;-143.21;54.46;70024.34;5110849;27;20204;-81
2023/07/26 04:11:06;;;;;;;26.20;9.88;;;;;;;-143.21;54.80;70028.31;5109020;28;20223;-79
2023/07/26 04:13:35;;;;;;;22.20;10.05;;;;;;;-143.21;55.10;70042.19;5108407;28;20224;-81
2023/07/26 04:16:01;;;;;;;32.95;9.88;;;;;;;-143.21;54.93;70024.34;5110840;27;20235;-82
2023/07/26 04:18:28;;;;;;;19.05;9.13;;;;;;;-143.21;54.64;70012.47;5108975;28;20281;-81
2023/07/26 04:20:55;;;;;;;19.65;8.88;;;;;;;-143.21;54.66;70012.47;5109957;28;20621;-81
2023/07/26 04:23:22;;;;;;;22.98;9.85;;;;;;;-143.21;55.21;70036.25;5107406;28;20666;-81
2023/07/26 04:25:52;;;;;;;27.33;9.32;;;;;;;-143.21;55.43;70026.31;5107631;28;20203;-81
2023/07/26 04:28:19;;;;;;;17.15;9.25;;;;;;;-143.21;55.72;70042.19;5106836;28;20192;-81
2023/07/26 04:30:48;;;;;;;23.38;10.23;;;;;;;-143.21;56.21;70044.16;5108041;28;20207;-81
2023/07/26 04:33:15;;;;;;;21.80;10.05;;;;;;;-143.21;56.40;70044.16;5108987;28;20202;-81
2023/07/26 04:35:44;;;;;;;22.95;10.30;;;;;;;-143.21;55.80;70036.25;5108458;28;20207;-81
2023/07/26 04:38:12;;;;;;;20.70;9.75;;;;;;;-143.21;56.18;70018.41;5107769;28;20221;-81
2023/07/26 04:40:39;;;;;;;24.00;9.80;;;;;;;-143.21;55.91;70000.56;5109504;28;20253;-81
2023/07/26 04:43:05;;;;;;;22.20;9.48;;;;;;;-143.21;55.62;69988.66;5106744;28;20214;-82
2023/07/26 04:45:32;;;;;;;17.90;9.52;;;;;;;-143.21;55.58;69984.72;5114518;28;20207;-81
2023/07/26 04:48:00;;;;;;;21.20;9.27;;;;;;;-143.21;55.52;70000.56;5107784;28;20913;-81
2023/07/26 04:50:27;;;;;;;22.45;9.75;;;;;;;-143.21;55.78;69972.81;5111814;28;20207;-79
2023/07/26 04:52:54;;;;;;;27.20;10.00;;;;;;;-143.21;55.52;69974.81;5112925;28;20642;-79
2023/07/26 04:55:21;;;;;;;21.77;9.95;;;;;;;-143.21;55.28;69976.78;5112050;28;20654;-79
2023/07/26 04:57:47;;;;;;;26.17;9.98;;;;;;;-143.21;55.53;69994.63;5107799;28;20311;-79
2023/07/26 05:00:15;;;;;;;25.48;9.77;;;;;;;-143.21;55.88;69970.84;5110428;28;20204;-79
2023/07/26 05:02:41;;;;;;;24.38;9.85;;;;;;;-143.21;55.88;69945.06;5109688;28;20243;-77
2023/07/26 05:05:10;;;;;;;20.15;9.35;;;;;;;-143.21;54.99;69911.38;5103270;28;20681;-77
2023/07/26 05:07:37;;;;;;;24.95;9.93;;;;;;;-143.21;54.13;69905.44;5110329;28;20559;-78
2023/07/26 05:10:04;;;;;;;28.30;9.93;;;;;;;-143.21;54.13;69907.41;5110797;28;20210;-78
2023/07/26 05:12:31;;;;;;;20.13;9.38;;;;;;;-143.21;54.06;69913.38;5113491;28;20208;-79
2023/07/26 05:14:57;;;;;;;28.42;9.13;;;;;;;-143.21;54.13;69889.59;5107725;28;20204;-78
2023/07/26 05:17:24;;;;;;;23.85;9.95;;;;;;;-143.21;54.40;69905.44;5107766;28;20299;-80
2023/07/26 05:19:51;;;;;;;15.57;8.98;;;;;;;-143.21;53.92;69883.63;5110029;28;20210;-79
2023/07/26 05:22:19;;;;;;;20.15;9.63;;;;;;;-143.21;53.52;69885.63;5109962;28;20219;-79
2023/07/26 05:24:46;;;;;;;21.50;8.80;;;;;;;-143.21;52.85;69881.66;5109787;28;20199;-80
2023/07/26 05:27:13;;;;;;;18.42;8.98;;;;;;;-143.21;53.35;69879.69;5107544;28;20200;-79
2023/07/26 05:29:39;;;;;;;23.88;9.15;;;;;;;-143.21;53.27;69867.78;5109234;28;20200;-79
2023/07/26 05:32:08;;;;;;;22.65;9.15;;;;;;;-143.21;53.42;69869.78;5113801;28;20203;-78
2023/07/26 05:34:35;;;;;;;20.60;9.18;;;;;;;-143.21;52.54;69863.81;5113601;28;20211;-78
2023/07/26 05:37:02;;;;;;;18.30;9.32;;;;;;;-143.21;52.66;69865.81;5113522;27;20288;-78
2023/07/26 05:39:31;;;;;;;21.13;9.50;;;;;;;-143.21;52.03;69847.97;5116445;27;20585;-77
2023/07/26 05:41:58;;;;;;;22.90;9.45;;;;;;;-143.21;51.39;69842.03;5111479;27;20211;-78
2023/07/26 05:44:25;;;;;;;18.83;8.85;;;;;;;-143.21;50.00;69824.19;5111737;27;20231;-78
2023/07/26 05:46:51;;;;;;;20.83;8.98;;;;;;;-143.21;51.09;69818.25;5113390;27;20203;-77
2023/07/26 05:49:18;;;;;;;20.25;9.30;;;;;;;-143.21;50.49;69814.28;5110868;27;20204;-77
2023/07/26 05:51:45;;;;;;;30.42;9.35;;;;;;;-143.21;51.02;69820.22;5110024;27;20239;-79
2023/07/26 05:54:12;;;;;;;21.92;9.20;;;;;;;-143.21;50.22;69808.34;5116440;27;20623;-78
2023/07/26 05:56:40;;;;;;;30.45;9.18;;;;;;;-143.21;48.87;69800.41;5113709;27;20227;-78
2023/07/26 05:59:08;;;;;;;31.23;9.05;;;;;;;-143.21;48.16;69792.47;5113484;27;20211;-78
2023/07/26 06:01:35;;;;;;;27.23;7.82;;;;;;;-143.21;43.79;69768.69;5111762;27;20721;-77
2023/07/26 06:04:01;;;;;;;23.85;8.43;;;;;;;-143.21;40.15;69750.88;5112889;27;20208;-78
2023/07/26 06:06:28;;;;;;;30.60;8.30;;;;;;;-143.21;39.47;69723.13;5113130;27;20207;-77
2023/07/26 06:08:57;;;;;;;26.42;7.93;;;;;;;-143.21;36.38;69695.38;5114968;27;20669;-77
2023/07/26 06:11:23;;;;;;;21.25;8.50;;;;;;;-143.21;37.13;69673.59;5114514;27;20200;-78
2023/07/26 06:13:52;;;;;;;30.85;9.20;;;;;;;-143.21;39.15;69643.84;5107828;27;20253;-77
2023/07/26 06:16:18;;;;;;;23.65;9.05;;;;;;;-143.21;39.33;69628.00;5115192;27;21518;-78
2023/07/26 06:18:45;;;;;;;20.95;8.10;;;;;;;-143.21;40.12;69598.28;5114111;27;20607;-78
2023/07/26 06:21:12;;;;;;;24.50;8.30;;;;;;;-143.21;40.17;69576.47;5109999;27;20206;-78
2023/07/26 06:23:39;;;;;;;22.25;9.15;;;;;;;-143.21;40.18;69568.56;5111733;27;20201;-77
2023/07/26 06:26:06;;;;;;;29.20;8.57;;;;;;;-143.21;39.57;69562.63;5112519;27;20211;-78
2023/07/26 06:28:33;;;;;;;24.98;7.85;;;;;;;-143.21;34.48;69558.66;5110178;27;20219;-78
2023/07/26 06:31:01;;;;;;;27.40;8.10;;;;;;;-143.21;33.80;69540.81;5108951;27;20682;-78
2023/07/26 06:33:30;;;;;;;27.30;7.97;;;;;;;-143.21;33.31;69524.97;5107953;27;20208;-78
2023/07/26 06:35:57;;;;;;;25.67;8.55;;;;;;;-143.21;32.75;69522.97;5107832;27;20220;-78
2023/07/26 06:38:24;;;;;;;26.75;8.27;;;;;;;-143.21;32.97;69517.03;5111139;27;20245;-78
2023/07/26 06:40:51;;;;;;;27.27;8.45;;;;;;;-143.21;33.40;69509.13;5111390;27;20204;-78
2023/07/26 06:43:18;;;;;;;31.02;8.38;;;;;;;-143.21;33.14;69503.16;5116035;27;20674;-78
2023/07/26 06:45:47;;;;;;;27.80;9.13;;;;;;;-143.21;32.76;69483.34;5110355;27;20192;-77
2023/07/26 06:48:15;;;;;;;24.60;8.65;;;;;;;-143.21;31.75;69469.47;5107413;27;20690;-77
2023/07/26 06:50:42;;;;;;;29.10;7.97;;;;;;;-143.21;32.06;69465.50;5110257;27;20327;-78
2023/07/26 06:53:10;;;;;;;31.10;9.52;;;;;;;-143.21;31.96;69471.47;5108423;27;20214;-77
2023/07/26 06:55:37;;;;;;;34.33;8.15;;;;;;;-143.21;31.52;69455.59;5117290;27;20308;-78
2023/07/26 06:58:04;;;;;;;40.75;8.45;;;;;;;-143.21;30.57;69457.59;5109180;27;20233;-78
2023/07/26 07:00:31;;;;;;;31.00;7.88;;;;;;;-143.21;30.45;69461.56;5114642;27;20192;-79
2023/07/26 07:02:59;;;;;;;35.15;8.85;;;;;;;-143.21;30.78;69441.75;5111913;27;20280;-78
2023/07/26 07:05:28;;;;;;;38.17;8.10;;;;;;;-143.21;31.15;69461.56;5108735;27;20642;-78
2023/07/26 07:07:55;;;;;;;27.33;7.10;;;;;;;-143.21;31.33;69481.38;5113601;27;20196;-78
2023/07/26 07:10:22;;;;;;;21.67;7.68;;;;;;;-143.21;31.96;69471.47;5113165;27;20710;-78
2023/07/26 07:12:49;;;;;;;26.45;7.15;;;;;;;-143.21;32.50;69485.34;5107468;27;20203;-78
2023/07/26 07:15:16;;;;;;;22.58;7.68;;;;;;;-143.21;33.40;69481.38;5110882;27;20204;-78
2023/07/26 07:17:42;;;;;;;24.50;7.88;;;;;;;-143.21;33.68;69471.47;5113841;27;20294;-77
2023/07/26 07:20:10;;;;;;;26.75;8.00;;;;;;;-143.21;33.82;69461.56;5108113;27;20234;-78
2023/07/26 07:22:38;;;;;;;19.90;8.05;;;;;;;-143.21;34.04;69473.44;5106936;27;20196;-77
2023/07/26 07:25:06;;;;;;;24.02;7.32;;;;;;;-143.21;34.14;69477.41;5117090;27;20204;-78
2023/07/26 07:27:32;;;;;;;20.00;8.02;;;;;;;-143.21;34.50;69483.34;5111422;27;20310;-78
2023/07/26 07:29:59;;;;;;;20.40;7.60;;;;;;;-143.21;34.19;69471.47;5113656;27;20215;-78
2023/07/26 07:32:27;;;;;;;22.20;7.78;;;;;;;-143.21;34.14;69465.50;5111046;27;20253;-78
2023/07/26 07:34:53;;;;;;;20.80;7.20;;;;;;;-143.21;34.19;69453.63;5111693;27;20221;-79
2023/07/26 07:37:20;;;;;;;22.15;7.82;;;;;;;-143.21;34.24;69457.59;5110111;27;20232;-78
2023/07/26 07:39:49;;;;;;;23.90;7.97;;;;;;;-143.21;34.40;69451.66;5116732;27;20200;-79
2023/07/26 07:42:15;;;;;;;29.88;7.47;;;;;;;-143.21;34.69;69451.66;5110591;27;20600;-83
2023/07/26 07:44:42;;;;;;;20.85;7.53;;;;;;;-143.21;34.31;69435.78;5111299;27;20200;-79
2023/07/26 07:47:09;;;;;;;31.13;7.90;;;;;;;-143.21;34.33;69417.97;5111745;27;20207;-78
2023/07/26 07:49:36;;;;;;;20.23;7.75;;;;;;;-143.21;34.71;69417.97;5111071;27;20203;-80
2023/07/26 07:52:02;;;;;;;23.10;7.80;;;;;;;-143.21;33.84;69402.13;5110120;27;20262;-79
2023/07/26 07:54:29;;;;;;;21.15;8.00;;;;;;;-143.21;34.14;69414.00;5108774;27;20208;-80
2023/07/26 07:56:57;;;;;;;25.83;8.07;;;;;;;-143.21;33.88;69415.97;5110538;27;20223;-77
2023/07/26 07:59:24;;;;;;;23.80;7.60;;;;;;;-143.21;34.27;69402.13;5112540;27;20553;-77
2023/07/26 08:01:51;;;;;;;33.70;7.95;;;;;;;-143.21;33.87;69394.19;5108159;27;20199;-78
2023/07/26 08:04:18;;;;;;;26.10;7.82;;;;;;;-143.21;33.66;69388.25;5110858;27;20677;-78
2023/07/26 08:06:45;;;;;;;25.75;7.97;;;;;;;-143.21;33.72;69390.22;5114751;27;20212;-78
2023/07/26 08:09:11;;;;;;;21.75;7.22;;;;;;;-143.21;33.49;69364.47;5116029;27;20219;-78
2023/07/26 08:11:38;;;;;;;26.02;7.93;;;;;;;-143.21;32.56;69352.56;5111684;27;20211;-78
2023/07/26 08:14:07;;;;;;;29.88;8.32;;;;;;;-143.21;31.76;69338.69;5115773;27;20200;-78
2023/07/26 08:16:33;;;;;;;28.77;7.47;;;;;;;-143.21;31.20;69320.88;5112139;27;20204;-78
2023/07/26 08:19:03;;;;;;;29.55;6.97;;;;;;;-143.21;29.67;69328.78;5107799;27;20239;-77
2023/07/26 08:21:29;;;;;;;21.33;6.75;;;;;;;-143.21;30.21;69328.78;5117169;27;20218;-78
2023/07/26 08:23:56;;;;;;;25.85;6.07;;;;;;;-143.21;28.47;69326.81;5110103;27;20207;-78
2023/07/26 08:26:23;;;;;;;29.02;6.60;;;;;;;-143.21;28.56;69305.03;5112166;28;20204;-78
2023/07/26 08:28:50;;;;;;;24.02;5.93;;;;;;;-143.21;26.52;69303.03;5107782;28;21600;-78
2023/07/26 08:31:18;;;;;;;21.38;6.60;;;;;;;-143.21;27.79;69291.16;5111121;27;20685;-79
2023/07/26 08:33:45;;;;;;;25.38;6.43;;;;;;;-143.21;27.52;69271.34;5120471;27;20198;-78
2023/07/26 08:36:11;;;;;;;22.40;6.32;;;;;;;-143.21;28.30;69287.19;5113186;27;20210;-78
2023/07/26 08:38:38;;;;;;;26.52;6.53;;;;;;;-143.21;27.37;69277.28;5107310;28;20311;-78
2023/07/26 08:41:06;;;;;;;23.17;6.20;;;;;;;-143.21;27.81;69275.28;5109320;28;20211;-78
2023/07/26 08:43:37;;;;;;;22.17;6.40;;;;;;;-143.21;27.63;69263.41;5107238;28;20219;-78
2023/07/26 08:46:07;;;;;;;22.42;6.30;;;;;;;-143.21;27.29;69263.41;5116056;28;20226;-79
2023/07/26 08:48:37;;;;;;;32.85;6.28;;;;;;;-143.21;26.99;69263.41;5115387;28;20203;-78
2023/07/26 08:51:06;;;;;;;22.10;6.43;;;;;;;-143.21;27.02;69249.53;5107682;28;20228;-78
2023/07/26 08:53:35;;;;;;;25.52;6.30;;;;;;;-143.21;27.13;69261.44;5107634;28;20200;-78
2023/07/26 08:56:02;;;;;;;24.65;6.55;;;;;;;-143.21;27.33;69253.50;5114688;28;20301;-78
2023/07/26 08:58:29;;;;;;;17.15;5.63;;;;;;;-143.21;27.32;69243.59;5113548;28;20240;-78
2023/07/26 09:00:58;;;;;;;27.40;5.88;;;;;;;-143.21;27.08;69251.53;5115456;28;20219;-78
2023/07/26 09:03:25;;;;;;;28.48;6.20;;;;;;;-143.21;27.59;69241.63;5108352;28;20331;-78
2023/07/26 09:06:05;;;;;;;22.83;6.38;;;;;;;-143.21;27.60;69259.44;5109855;28;20191;-78
2023/07/26 09:08:32;;;;;;;19.58;5.82;;;;;;;-143.21;27.59;69271.34;5107574;28;20203;-78
2023/07/26 09:11:01;;;;;;;33.50;7.40;;;;;;;-143.21;27.48;69263.41;5104593;28;20200;-79
2023/07/26 09:13:28;;;;;;;17.45;6.05;;;;;;;-143.21;27.55;69253.50;5114663;27;20215;-79
2023/07/26 09:15:55;;;;;;;24.35;5.95;;;;;;;-143.21;27.81;69257.47;5114621;27;20195;-80
2023/07/26 09:18:22;;;;;;;32.67;6.57;;;;;;;-143.21;28.16;69249.53;5112150;27;20426;-79
2023/07/26 09:21:00;;;;;;;22.38;6.13;;;;;;;-143.21;28.34;69237.66;5108588;27;20215;-79
2023/07/26 09:23:28;;;;;;;27.17;6.25;;;;;;;-143.21;28.12;69251.53;5111300;27;20200;-78
2023/07/26 09:25:54;;;;;;;22.50;6.57;;;;;;;-143.21;28.31;69239.63;5110602;27;21123;-78
2023/07/26 09:28:23;;;;;;;21.80;6.45;;;;;;;-143.21;28.48;69235.66;5112891;27;20690;-78
2023/07/26 09:30:50;;;;;;;18.77;6.18;;;;;;;-143.21;28.41;69227.75;5114662;27;20204;-78
2023/07/26 09:33:17;;;;;;;18.83;6.70;;;;;;;-143.21;28.16;69227.75;5109793;27;20211;-79
2023/07/26 09:35:45;;;;;;;24.00;6.60;;;;;;;-143.21;27.81;69219.81;5110253;27;20211;-79
2023/07/26 09:38:13;;;;;;;27.15;7.30;;;;;;;-143.21;28.42;69211.91;5113585;27;20232;-79
2023/07/26 09:40:41;;;;;;;24.23;7.05;;;;;;;-143.21;28.16;69219.81;5110004;27;20207;-79
2023/07/26 09:43:08;;;;;;;20.85;6.05;;;;;;;-143.21;28.16;69223.78;5112224;27;20206;-79
2023/07/26 09:45:36;;;;;;;26.42;6.18;;;;;;;-143.21;28.19;69231.72;5106738;27;20192;-78
2023/07/26 09:48:06;;;;;;;20.08;6.00;;;;;;;-143.21;28.07;69233.69;5113316;27;20670;-79
2023/07/26 09:50:35;;;;;;;18.52;6.13;;;;;;;-143.21;28.45;69227.75;5108573;27;20196;-79
2023/07/26 09:53:03;;;;;;;23.13;6.47;;;;;;;-143.21;28.21;69211.91;5111403;27;20207;-79
2023/07/26 09:55:31;;;;;;;17.15;6.10;;;;;;;-143.21;28.25;69231.72;5109609;27;20204;-79
2023/07/26 09:58:00;;;;;;;20.17;5.82;;;;;;;-143.21;27.99;69229.72;5111599;27;20243;-79
2023/07/26 10:00:29;;;;;;;19.65;6.35;;;;;;;-143.21;28.31;69213.88;5113213;27;20205;-77
2023/07/26 10:02:58;;;;;;;23.05;6.50;;;;;;;-143.21;28.55;69227.75;5117887;27;20206;-78
2023/07/26 10:05:26;;;;;;;22.83;5.80;;;;;;;-143.21;28.86;69231.72;5112799;27;20203;-79
2023/07/26 10:07:54;;;;;;;17.85;6.40;;;;;;;-143.21;29.16;69257.47;5117458;27;20199;-78
2023/07/26 10:10:25;;;;;;;26.67;6.00;;;;;;;-143.21;29.13;69251.53;5109955;27;20200;-80
2023/07/26 10:12:53;;;;;;;27.55;6.15;;;;;;;-143.21;28.75;69253.50;5113619;27;21030;-77
2023/07/26 10:15:23;;;;;;;22.23;6.10;;;;;;;-143.21;29.04;69237.66;5112756;27;20196;-82
2023/07/26 10:17:52;;;;;;;25.35;6.57;;;;;;;-143.21;28.81;69209.91;5115514;27;20220;-81
2023/07/26 10:20:20;;;;;;;18.05;6.63;;;;;;;-143.21;28.85;69186.13;5114418;27;20253;-83
2023/07/26 10:22:49;;;;;;;27.73;6.20;;;;;;;-143.21;28.78;69152.47;5110840;28;20203;-83
2023/07/26 10:25:16;;;;;;;26.25;6.43;;;;;;;-143.21;27.89;69134.63;5110432;27;20200;-83
2023/07/26 10:27:43;;;;;;;23.85;6.13;;;;;;;-143.21;27.81;69152.47;5110846;27;20589;-83
2023/07/26 10:30:11;;;;;;;23.90;6.20;;;;;;;-143.21;28.60;69144.53;5112096;27;20200;-83
2023/07/26 10:32:47;;;;;;;19.98;6.32;;;;;;;-143.21;28.90;69144.53;5111224;27;20299;-83
2023/07/26 10:35:26;;;;;;;17.73;5.70;;;;;;;-143.21;28.04;69138.59;5117725;27;20248;-83
2023/07/26 10:37:53;;;;;;;26.55;6.40;;;;;;;-143.21;28.36;69136.59;5113728;28;20215;-81
2023/07/26 10:40:31;;;;;;;21.27;6.15;;;;;;;-143.21;27.49;69120.75;5114431;28;20195;-84
2023/07/26 10:42:58;;;;;;;20.02;5.85;;;;;;;-143.21;27.13;69112.81;5114162;28;20196;-83
2023/07/26 10:45:40;;;;;;;24.35;6.13;;;;;;;-143.21;26.95;69095.00;5113794;28;20241;-83
2023/07/26 10:48:13;;;;;;;19.83;5.57;;;;;;;-143.21;26.37;69075.19;5114043;28;20196;-83
2023/07/26 10:50:40;;;;;;;23.55;5.95;;;;;;;-143.21;26.44;69051.41;5119958;27;20256;-82
2023/07/26 10:53:29;;;;;;;22.60;5.88;;;;;;;-143.21;26.40;69061.31;5113483;28;20199;-82
2023/07/26 10:56:12;;;;;;;18.80;5.78;;;;;;;-143.21;26.90;69073.19;5120168;27;20607;-82
2023/07/26 10:58:49;;;;;;;16.45;5.88;;;;;;;-143.21;27.04;69071.22;5111882;27;20226;-82
2023/07/26 11:01:36;;;;;;;21.70;6.82;;;;;;;-143.21;27.45;69059.34;5113501;28;20212;-82
2023/07/26 11:04:10;;;;;;;26.77;6.38;;;;;;;-143.21;27.41;69043.47;5114181;28;20184;-83
2023/07/26 11:06:56;;;;;;;16.75;5.65;;;;;;;-143.21;26.50;69037.53;5113806;28;20192;-83
2023/07/26 11:09:25;;;;;;;21.27;6.72;;;;;;;-143.21;26.93;69035.56;5113827;28;20555;-82
2023/07/26 11:11:54;;;;;;;20.15;5.57;;;;;;;-143.21;27.06;69003.84;5132221;27;20223;-84